Oriole, Maryland
Current Conditions -  °F | °C
As of 1:54 PM on Friday 28 Nov 2014 (Local Time) from KSBY Reporting Station
Broken Clouds Broken Clouds  
Wind Chill: 33°   Ceiling: 5000
Heat Index: 41°   Visibility: 10mi
Dew Point: 21°   Wind: 16mph
Humidity: 45%   Direction: 310°NW
Pressure: 30.23"   Gusts: 23mph
Location:  38.1954°N, 75.7083°W
Report Text: KSBY 281854Z 31014G20KT 10SM BKN050 05/M06 A3023 RMK AO2 SLP240 T00501061
Loading
Personal Weather Stations






























Interactive Weather Map New forecast layout! Learn more

10-Day Weather Forecast

Advertisements
Track Severe Weather on mobile